createdAt,value
2016-11-15T00:00:08.277Z,0.38
2016-11-15T00:01:16.911Z,0.44
2016-11-15T00:02:25.533Z,0.44
2016-11-15T00:03:34.160Z,0.44
2016-11-15T00:04:42.752Z,0.51
2016-11-15T00:05:51.345Z,0.33
2016-11-15T00:06:59.950Z,0.46
2016-11-15T00:08:08.558Z,0.41
2016-11-15T00:09:17.187Z,0.44
2016-11-15T00:10:25.858Z,0.39
2016-11-15T00:11:34.456Z,0.38
2016-11-15T00:12:43.098Z,0.35
2016-11-15T00:13:51.692Z,0.35
2016-11-15T00:15:00.314Z,0.26
2016-11-15T00:16:08.930Z,0.2
2016-11-15T00:17:17.540Z,0.28
2016-11-15T00:18:26.173Z,0.21
2016-11-15T00:19:34.776Z,0.17
2016-11-15T00:20:43.401Z,0.23
2016-11-15T00:21:52.011Z,0.15
2016-11-15T00:23:00.612Z,0.23
2016-11-15T00:24:09.210Z,0.21
2016-11-15T00:25:17.861Z,0.23
2016-11-15T00:26:26.480Z,0.2
2016-11-15T00:27:35.128Z,0.21
2016-11-15T00:28:43.744Z,0.15
2016-11-15T00:29:52.338Z,0.23
2016-11-15T00:31:00.958Z,0.24
2016-11-15T00:32:09.563Z,0.23
2016-11-15T00:33:18.201Z,0.18
2016-11-15T00:34:26.818Z,0.29
2016-11-15T00:35:35.428Z,0.36
2016-11-15T00:36:44.035Z,0.38
2016-11-15T00:37:52.639Z,0.38
2016-11-15T00:39:01.232Z,0.35
2016-11-15T00:40:09.853Z,0.39
2016-11-15T00:41:18.452Z,0.47
2016-11-15T00:42:27.048Z,0.41
2016-11-15T00:43:35.665Z,0.47
2016-11-15T00:44:44.262Z,0.6
2016-11-15T00:45:52.870Z,0.7
2016-11-15T00:47:01.490Z,0.68
2016-11-15T00:48:10.116Z,0.69
2016-11-15T00:49:18.727Z,0.73
2016-11-15T00:50:27.363Z,0.79
2016-11-15T00:51:35.961Z,0.91
2016-11-15T00:52:44.564Z,0.94
2016-11-15T00:53:53.181Z,0.88
2016-11-15T00:55:01.836Z,1.04
2016-11-15T00:56:10.483Z,0.93
2016-11-15T00:57:19.104Z,0.97
2016-11-15T00:58:27.712Z,1.05
2016-11-15T00:59:36.321Z,1.08
2016-11-15T01:00:44.937Z,1.06
2016-11-15T01:01:53.531Z,1.11
2016-11-15T01:03:02.159Z,1.08
2016-11-15T01:04:10.775Z,1.08
2016-11-15T01:05:19.378Z,1.14
2016-11-15T01:06:27.970Z,1.18
2016-11-15T01:07:36.568Z,1.2
2016-11-15T01:08:45.178Z,1.24
2016-11-15T01:09:53.803Z,1.27
2016-11-15T01:11:02.419Z,1.3
2016-11-15T01:12:11.024Z,1.23
2016-11-15T01:13:19.641Z,1.3
2016-11-15T01:14:28.262Z,1.36
2016-11-15T01:15:36.884Z,1.34
2016-11-15T01:16:45.483Z,1.36
2016-11-15T01:17:54.079Z,1.36
2016-11-15T01:19:02.706Z,1.41
2016-11-15T01:20:11.339Z,1.44
2016-11-15T01:21:19.948Z,1.45
2016-11-15T01:22:28.564Z,1.44
2016-11-15T01:23:37.165Z,1.45
2016-11-15T01:24:45.803Z,1.52
2016-11-15T01:25:54.406Z,1.42
2016-11-15T01:27:03.024Z,1.45
2016-11-15T01:28:11.640Z,1.45
2016-11-15T01:29:20.258Z,1.48
2016-11-15T01:30:28.886Z,1.54
2016-11-15T01:31:37.483Z,1.45
2016-11-15T01:32:46.096Z,1.48
2016-11-15T01:33:54.726Z,1.55
2016-11-15T01:35:03.322Z,1.52
2016-11-15T01:36:11.925Z,1.52
2016-11-15T01:37:20.556Z,1.6
2016-11-15T01:38:29.156Z,1.52
2016-11-15T01:39:37.756Z,1.55
2016-11-15T01:40:46.382Z,1.54
2016-11-15T01:41:55.022Z,1.5
2016-11-15T01:43:03.648Z,1.55
2016-11-15T01:44:12.286Z,1.47
2016-11-15T01:45:20.916Z,1.45
2016-11-15T01:46:29.524Z,1.4
2016-11-15T01:47:38.521Z,1.45
2016-11-15T01:48:47.130Z,1.45
2016-11-15T01:49:56.063Z,1.42
2016-11-15T01:51:04.671Z,1.47
2016-11-15T01:52:13.288Z,1.37
2016-11-15T01:53:21.909Z,1.41
2016-11-15T01:54:30.505Z,1.33
2016-11-15T01:55:39.105Z,1.32
2016-11-15T01:56:47.702Z,1.23
2016-11-15T01:57:56.339Z,1.27
2016-11-15T01:59:04.968Z,1.27
2016-11-15T02:00:13.589Z,1.22
2016-11-15T02:01:22.211Z,1.2
2016-11-15T02:02:30.860Z,1.18
2016-11-15T02:03:39.479Z,1.18
2016-11-15T02:04:48.101Z,1.18
2016-11-15T02:05:56.746Z,1.09
2016-11-15T02:07:05.358Z,1.22
2016-11-15T02:08:13.987Z,1.09
2016-11-15T02:09:22.626Z,1.16
2016-11-15T02:10:31.225Z,1.14
2016-11-15T02:11:39.844Z,1.11
2016-11-15T02:12:48.460Z,1.22
2016-11-15T02:13:57.069Z,1.22
2016-11-15T02:15:05.682Z,1.18
2016-11-15T02:16:14.278Z,1.23
2016-11-15T02:17:22.919Z,1.27
2016-11-15T02:18:31.528Z,1.24
2016-11-15T02:19:40.169Z,1.2
2016-11-15T02:20:48.799Z,1.23
2016-11-15T02:21:57.416Z,1.18
2016-11-15T02:23:06.050Z,1.33
2016-11-15T02:24:15.058Z,1.29
2016-11-15T02:25:23.688Z,1.33
2016-11-15T02:26:32.621Z,1.32
2016-11-15T02:27:41.216Z,1.37
2016-11-15T02:28:49.818Z,1.44
2016-11-15T02:29:58.440Z,1.4
2016-11-15T02:31:07.059Z,1.36
2016-11-15T02:32:15.678Z,1.36
2016-11-15T02:33:24.326Z,1.47
2016-11-15T02:34:32.962Z,1.41
2016-11-15T02:35:41.568Z,1.45
2016-11-15T02:36:50.161Z,1.47
2016-11-15T02:37:58.786Z,1.45
2016-11-15T02:39:07.403Z,1.45
2016-11-15T02:40:16.021Z,1.45
2016-11-15T02:41:24.670Z,1.42
2016-11-15T02:42:33.292Z,1.5
2016-11-15T02:43:41.918Z,1.47
2016-11-15T02:44:50.539Z,1.47
2016-11-15T02:45:59.159Z,1.42
2016-11-15T02:47:07.797Z,1.47
2016-11-15T02:48:16.416Z,1.51
2016-11-15T02:49:25.011Z,1.45
2016-11-15T02:50:33.639Z,1.42
2016-11-15T02:51:42.261Z,1.42
2016-11-15T02:52:50.900Z,1.45
2016-11-15T02:53:59.508Z,1.52
2016-11-15T02:55:08.141Z,1.47
2016-11-15T02:56:16.750Z,1.42
2016-11-15T02:57:25.358Z,1.42
2016-11-15T02:58:33.979Z,1.44
2016-11-15T02:59:42.612Z,1.45
2016-11-15T03:00:51.234Z,1.47
2016-11-15T03:01:59.850Z,1.47
2016-11-15T03:03:08.468Z,1.48
2016-11-15T03:04:17.067Z,1.51
2016-11-15T03:05:25.688Z,1.54
2016-11-15T03:06:34.281Z,1.51
2016-11-15T03:07:42.884Z,1.59
2016-11-15T03:08:51.495Z,1.54
2016-11-15T03:10:00.097Z,1.55
2016-11-15T03:11:08.691Z,1.55
2016-11-15T03:12:17.307Z,1.52
2016-11-15T03:13:25.911Z,1.59
2016-11-15T03:14:34.554Z,1.5
2016-11-15T03:15:43.170Z,1.66
2016-11-15T03:16:51.792Z,1.58
2016-11-15T03:18:00.399Z,1.59
2016-11-15T03:19:09.020Z,1.59
2016-11-15T03:20:17.641Z,1.66
2016-11-15T03:21:26.255Z,1.66
2016-11-15T03:22:34.854Z,1.6
2016-11-15T03:23:43.451Z,1.65
2016-11-15T03:24:52.071Z,1.55
2016-11-15T03:26:00.670Z,1.65
2016-11-15T03:27:09.336Z,1.65
2016-11-15T03:28:17.952Z,1.63
2016-11-15T03:29:26.548Z,1.65
2016-11-15T03:30:35.194Z,1.59
2016-11-15T03:31:43.817Z,1.62
2016-11-15T03:32:52.436Z,1.55
2016-11-15T03:34:01.043Z,1.6
2016-11-15T03:35:09.667Z,1.59
2016-11-15T03:36:18.582Z,1.68
2016-11-15T03:37:27.186Z,1.66
2016-11-15T03:38:35.825Z,1.65
2016-11-15T03:39:44.440Z,1.59
2016-11-15T03:40:53.033Z,1.63
2016-11-15T03:42:01.980Z,1.54
2016-11-15T03:43:10.585Z,1.59
2016-11-15T03:44:19.172Z,1.62
2016-11-15T03:45:27.792Z,1.54
2016-11-15T03:46:36.414Z,1.58
2016-11-15T03:47:45.045Z,1.54
2016-11-15T03:48:53.643Z,1.6
2016-11-15T03:50:02.266Z,1.62
2016-11-15T03:51:10.881Z,1.65
2016-11-15T03:52:19.482Z,1.58
2016-11-15T03:53:28.103Z,1.59
2016-11-15T03:54:37.025Z,1.55
2016-11-15T03:55:45.633Z,1.59
2016-11-15T03:56:54.253Z,1.59
2016-11-15T03:58:02.864Z,1.6
2016-11-15T03:59:11.479Z,1.62
2016-11-15T04:00:20.103Z,1.52
2016-11-15T04:01:28.721Z,1.59
2016-11-15T04:02:37.342Z,1.68
2016-11-15T04:03:46.006Z,1.62
2016-11-15T04:04:54.628Z,1.69
2016-11-15T04:06:03.273Z,1.72
2016-11-15T04:07:11.906Z,1.69
2016-11-15T04:08:20.531Z,1.72
2016-11-15T04:09:29.147Z,1.7
2016-11-15T04:10:38.137Z,1.69
2016-11-15T04:11:46.728Z,1.68
2016-11-15T04:12:55.351Z,1.6
2016-11-15T04:14:04.000Z,1.76
2016-11-15T04:15:12.642Z,1.76
2016-11-15T04:16:21.267Z,1.73
2016-11-15T04:17:29.873Z,1.73
2016-11-15T04:18:38.490Z,1.72
2016-11-15T04:19:47.109Z,1.66
2016-11-15T04:20:55.702Z,1.7
2016-11-15T04:22:04.321Z,1.76
2016-11-15T04:23:12.969Z,1.76
2016-11-15T04:24:21.576Z,1.76
2016-11-15T04:25:30.181Z,1.72
2016-11-15T04:26:38.808Z,1.72
2016-11-15T04:27:47.404Z,1.72
2016-11-15T04:28:56.032Z,1.72
2016-11-15T04:30:04.622Z,1.7
2016-11-15T04:31:13.227Z,1.73
2016-11-15T04:32:21.865Z,1.73
2016-11-15T04:33:30.455Z,1.77
2016-11-15T04:34:39.062Z,1.76
2016-11-15T04:35:47.673Z,1.73
2016-11-15T04:36:56.294Z,1.76
2016-11-15T04:38:05.294Z,1.79
2016-11-15T04:39:13.914Z,1.79
2016-11-15T04:40:22.539Z,1.77
2016-11-15T04:41:31.141Z,1.73
2016-11-15T04:42:39.752Z,1.84
2016-11-15T04:43:48.353Z,1.84
2016-11-15T04:44:56.971Z,1.88
2016-11-15T04:46:05.574Z,1.84
2016-11-15T04:47:14.184Z,1.84
2016-11-15T04:48:22.787Z,1.84
2016-11-15T04:49:31.726Z,1.88
2016-11-15T04:50:40.385Z,1.86
2016-11-15T04:51:48.998Z,1.87
2016-11-15T04:52:57.626Z,1.88
2016-11-15T04:54:06.248Z,1.93
2016-11-15T04:55:14.890Z,1.87
2016-11-15T04:56:23.489Z,1.9
2016-11-15T04:57:32.099Z,1.91
2016-11-15T04:58:40.695Z,1.98
2016-11-15T04:59:49.323Z,1.88
2016-11-15T05:00:57.942Z,1.88
2016-11-15T05:02:06.595Z,1.87
2016-11-15T05:03:15.191Z,1.93
2016-11-15T05:04:23.808Z,1.91
2016-11-15T05:05:32.400Z,1.9
2016-11-15T05:06:41.006Z,1.93
2016-11-15T05:07:49.639Z,1.95
2016-11-15T05:08:58.259Z,2
2016-11-15T05:10:06.860Z,2.06
2016-11-15T05:11:15.481Z,2.03
2016-11-15T05:12:24.097Z,2.05
2016-11-15T05:13:32.727Z,2.07
2016-11-15T05:14:41.315Z,2.1
2016-11-15T05:15:49.941Z,2.06
2016-11-15T05:16:58.565Z,2.12
2016-11-15T05:18:07.190Z,2.12
2016-11-15T05:19:15.812Z,2.07
2016-11-15T05:20:24.433Z,2.14
2016-11-15T05:21:33.046Z,2.14
2016-11-15T05:22:41.651Z,2.16
2016-11-15T05:23:50.289Z,2.12
2016-11-15T05:24:58.905Z,2.2
2016-11-15T05:26:07.531Z,2.17
2016-11-15T05:27:16.160Z,2.14
2016-11-15T05:28:24.773Z,2.2
2016-11-15T05:29:33.366Z,2.21
2016-11-15T05:30:41.970Z,2.23
2016-11-15T05:31:50.590Z,2.25
2016-11-15T05:32:59.182Z,2.21
2016-11-15T05:34:07.799Z,2.25
2016-11-15T05:35:16.407Z,2.21
2016-11-15T05:36:25.024Z,2.27
2016-11-15T05:37:33.622Z,2.23
2016-11-15T05:38:42.234Z,2.24
2016-11-15T05:39:50.859Z,2.25
2016-11-15T05:40:59.476Z,2.28
2016-11-15T05:42:08.109Z,2.27
2016-11-15T05:43:16.754Z,2.3
2016-11-15T05:44:25.376Z,2.3
2016-11-15T05:45:33.989Z,2.21
2016-11-15T05:46:42.919Z,2.24
2016-11-15T05:47:51.540Z,2.27
2016-11-15T05:49:00.160Z,2.27
2016-11-15T05:50:08.783Z,2.3
2016-11-15T05:51:17.421Z,2.35
2016-11-15T05:52:26.050Z,2.31
2016-11-15T05:53:34.663Z,2.31
2016-11-15T05:54:43.267Z,2.35
2016-11-15T05:55:51.939Z,2.23
2016-11-15T05:57:00.554Z,2.23
2016-11-15T05:58:09.171Z,2.31
2016-11-15T05:59:17.769Z,2.28
2016-11-15T06:00:26.391Z,2.39
2016-11-15T06:01:34.993Z,2.31
2016-11-15T06:02:43.631Z,2.34
2016-11-15T06:03:52.227Z,2.35
2016-11-15T06:05:00.831Z,2.34
2016-11-15T06:06:09.448Z,2.41
2016-11-15T06:07:18.041Z,2.35
2016-11-15T06:08:26.640Z,2.36
2016-11-15T06:09:35.265Z,2.31
2016-11-15T06:10:43.886Z,2.45
2016-11-15T06:11:52.503Z,2.39
2016-11-15T06:13:01.129Z,2.38
2016-11-15T06:14:09.768Z,2.38
2016-11-15T06:15:18.438Z,2.35
2016-11-15T06:16:27.045Z,2.35
2016-11-15T06:17:35.677Z,2.41
2016-11-15T06:18:44.284Z,2.48
2016-11-15T06:19:52.896Z,2.35
2016-11-15T06:21:01.506Z,2.43
2016-11-15T06:22:10.162Z,2.41
2016-11-15T06:23:18.757Z,2.45
2016-11-15T06:24:27.353Z,2.48
2016-11-15T06:25:35.978Z,2.53
2016-11-15T06:26:44.578Z,2.56
2016-11-15T06:27:53.179Z,2.49
2016-11-15T06:29:01.818Z,2.57
2016-11-15T06:30:10.441Z,2.59
2016-11-15T06:31:19.041Z,2.53
2016-11-15T06:32:27.662Z,2.61
2016-11-15T06:33:36.261Z,2.63
2016-11-15T06:34:44.876Z,2.56
2016-11-15T06:35:53.494Z,2.57
2016-11-15T06:37:02.093Z,2.59
2016-11-15T06:38:10.706Z,2.63
2016-11-15T06:39:19.358Z,2.54
2016-11-15T06:40:27.960Z,2.54
2016-11-15T06:41:36.594Z,2.61
2016-11-15T06:42:45.220Z,2.66
2016-11-15T06:43:53.842Z,2.66
2016-11-15T06:45:02.445Z,2.67
2016-11-15T06:46:11.064Z,2.63
2016-11-15T06:47:19.675Z,2.66
2016-11-15T06:48:28.285Z,2.59
2016-11-15T06:49:36.901Z,2.63
2016-11-15T06:50:45.506Z,2.66
2016-11-15T06:51:54.117Z,2.59
2016-11-15T06:53:02.714Z,2.61
2016-11-15T06:54:11.313Z,2.67
2016-11-15T06:55:19.927Z,2.61
2016-11-15T06:56:28.568Z,2.67
2016-11-15T06:57:37.201Z,2.67
2016-11-15T06:58:45.822Z,2.64
2016-11-15T06:59:54.414Z,2.72
2016-11-15T07:01:03.035Z,2.71
2016-11-15T07:02:11.660Z,2.81
2016-11-15T07:03:20.269Z,2.92
2016-11-15T07:04:28.865Z,2.77
2016-11-15T07:05:37.486Z,2.89
2016-11-15T07:06:46.107Z,2.85
2016-11-15T07:07:54.717Z,2.87
2016-11-15T07:09:03.329Z,2.9
2016-11-15T07:10:11.958Z,2.9
2016-11-15T07:11:20.567Z,2.93
2016-11-15T07:12:29.193Z,2.97
2016-11-15T07:13:37.823Z,2.95
2016-11-15T07:14:46.440Z,2.92
2016-11-15T07:15:55.060Z,2.97
2016-11-15T07:17:03.657Z,3
2016-11-15T07:18:12.291Z,3.03
2016-11-15T07:19:21.225Z,3.1
2016-11-15T07:20:29.863Z,3.1
2016-11-15T07:21:38.458Z,3.06
2016-11-15T07:22:47.055Z,3.06
2016-11-15T07:23:55.678Z,3.08
2016-11-15T07:25:04.279Z,3.08
2016-11-15T07:26:12.900Z,3.08
2016-11-15T07:27:21.509Z,3.13
2016-11-15T07:28:30.109Z,3.08
2016-11-15T07:29:38.725Z,3.11
2016-11-15T07:30:47.331Z,3.08
2016-11-15T07:31:55.925Z,3.15
2016-11-15T07:33:04.827Z,3.14
2016-11-15T07:34:13.492Z,3.17
2016-11-15T07:35:22.081Z,3.15
2016-11-15T07:36:30.687Z,3.18
2016-11-15T07:37:39.277Z,3.18
2016-11-15T07:38:47.881Z,3.28
2016-11-15T07:39:56.494Z,3.35
2016-11-15T07:41:05.115Z,3.33
2016-11-15T07:42:13.707Z,3.29
2016-11-15T07:43:22.337Z,3.36
2016-11-15T07:44:30.956Z,3.43
2016-11-15T07:45:39.575Z,3.43
2016-11-15T07:46:48.222Z,3.48
2016-11-15T07:47:56.816Z,3.54
2016-11-15T07:49:05.720Z,3.54
2016-11-15T07:50:14.345Z,3.6
2016-11-15T07:51:22.979Z,3.65
2016-11-15T07:52:31.609Z,3.61
2016-11-15T07:53:40.248Z,3.66
2016-11-15T07:54:48.852Z,3.65
2016-11-15T07:55:57.490Z,3.68
2016-11-15T07:57:06.468Z,3.76
2016-11-15T07:58:15.082Z,3.75
2016-11-15T07:59:24.015Z,3.87
2016-11-15T08:00:32.649Z,3.88
2016-11-15T08:01:41.578Z,3.96
2016-11-15T08:02:50.192Z,4
2016-11-15T08:03:58.848Z,3.98
2016-11-15T08:05:07.462Z,4.09
2016-11-15T08:06:16.050Z,4.16
2016-11-15T08:07:24.671Z,4.14
2016-11-15T08:08:33.281Z,4.18
2016-11-15T08:09:41.906Z,4.14
2016-11-15T08:10:50.543Z,4.36
2016-11-15T08:11:59.164Z,4.23
2016-11-15T08:13:07.763Z,4.26
2016-11-15T08:14:16.380Z,4.26
2016-11-15T08:19:30.261Z,15.16
2016-11-15T08:20:38.880Z,15.41
2016-11-15T08:21:47.487Z,16.12
2016-11-15T08:22:56.104Z,16.33
2016-11-15T08:24:04.752Z,13.01
2016-11-15T08:25:13.374Z,10.04
2016-11-15T08:26:22.009Z,8.19
2016-11-15T08:27:30.642Z,6.99
2016-11-15T08:28:39.286Z,6.27
2016-11-15T08:29:47.925Z,5.6
2016-11-15T08:30:56.553Z,5.33
2016-11-15T08:32:05.213Z,5.03
2016-11-15T08:33:13.859Z,4.91
2016-11-15T08:34:22.506Z,4.89
2016-11-15T08:35:31.135Z,4.88
2016-11-15T08:36:39.799Z,4.63
2016-11-15T08:37:48.707Z,4.78
2016-11-15T08:38:57.323Z,4.67
2016-11-15T08:40:05.970Z,4.58
2016-11-15T08:41:14.582Z,4.69
2016-11-15T08:42:23.216Z,4.73
2016-11-15T08:43:31.850Z,4.73
2016-11-15T08:44:40.471Z,4.86
2016-11-15T08:45:49.093Z,4.85
2016-11-15T08:46:57.713Z,4.82
2016-11-15T08:48:06.342Z,4.78
2016-11-15T08:49:14.986Z,4.78
2016-11-15T08:50:23.602Z,4.82
2016-11-15T08:51:32.249Z,4.75
2016-11-15T08:52:40.856Z,4.88
2016-11-15T08:55:03.698Z,4.86
2016-11-15T08:56:12.320Z,4.96
2016-11-15T08:57:20.979Z,5.04
2016-11-15T08:58:29.600Z,5.02
2016-11-15T08:59:38.225Z,5.06
2016-11-15T09:00:46.881Z,5.03
2016-11-15T09:01:55.493Z,5.04
2016-11-15T09:03:04.125Z,5.09
2016-11-15T09:04:12.756Z,5.04
2016-11-15T09:05:21.377Z,5.09
2016-11-15T09:06:30.006Z,5
2016-11-15T09:07:38.630Z,4.97
2016-11-15T09:08:47.566Z,5.02
2016-11-15T09:09:56.215Z,4.96
2016-11-15T09:11:04.840Z,4.91
2016-11-15T09:12:13.467Z,4.84
2016-11-15T09:13:22.113Z,4.86
2016-11-15T09:14:30.751Z,4.88
2016-11-15T09:15:39.352Z,4.82
2016-11-15T09:16:47.948Z,4.78
2016-11-15T09:17:56.573Z,4.91
2016-11-15T09:19:05.195Z,4.88
2016-11-15T09:20:13.835Z,4.88
2016-11-15T09:21:22.453Z,4.88
2016-11-15T09:22:31.079Z,5.07
2016-11-15T09:23:39.723Z,5
2016-11-15T09:24:48.345Z,5.09
2016-11-15T09:25:56.969Z,5.06
2016-11-15T09:27:05.586Z,5.09
2016-11-15T09:28:14.208Z,5.27
2016-11-15T09:29:22.834Z,5.38
2016-11-15T09:30:31.426Z,5.36
2016-11-15T09:31:40.040Z,5.39
2016-11-15T09:32:49.040Z,5.36
2016-11-15T09:33:57.661Z,5.25
2016-11-15T09:35:06.286Z,5.17
2016-11-15T09:36:14.899Z,4.97
2016-11-15T09:37:23.524Z,4.85
2016-11-15T09:38:32.178Z,4.82
2016-11-15T09:39:40.818Z,4.6
2016-11-15T09:40:49.441Z,4.44
2016-11-15T09:41:58.517Z,4.33
2016-11-15T09:43:07.481Z,4.14
2016-11-15T09:44:16.635Z,4.22
2016-11-15T09:45:25.268Z,4.02
2016-11-15T09:46:33.878Z,3.98
2016-11-15T09:47:42.798Z,3.75
2016-11-15T09:48:51.407Z,3.78
2016-11-15T09:50:00.329Z,3.58
2016-11-15T09:51:08.937Z,3.55
2016-11-15T09:52:17.555Z,3.57
2016-11-15T09:53:26.174Z,3.54
2016-11-15T09:54:34.775Z,3.55
2016-11-15T09:55:43.395Z,3.5
2016-11-15T09:56:51.990Z,3.54
2016-11-15T09:58:00.606Z,3.54
2016-11-15T09:59:09.233Z,3.55
2016-11-15T10:00:17.832Z,3.58
2016-11-15T10:01:26.469Z,3.62
2016-11-15T10:02:35.072Z,3.61
2016-11-15T10:03:43.682Z,3.55
2016-11-15T10:04:52.303Z,3.61
2016-11-15T10:06:00.915Z,3.52
2016-11-15T10:07:09.535Z,3.52
2016-11-15T10:08:18.168Z,3.68
2016-11-15T10:09:26.800Z,3.55
2016-11-15T10:10:35.441Z,3.5
2016-11-15T10:11:44.059Z,3.47
2016-11-15T10:12:52.684Z,3.42
2016-11-15T10:14:01.334Z,3.48
2016-11-15T10:15:09.973Z,3.48
2016-11-15T10:16:18.615Z,3.58
2016-11-15T10:17:27.210Z,3.47
2016-11-15T10:18:36.141Z,3.52
2016-11-15T10:19:45.083Z,3.7
2016-11-15T10:20:54.111Z,3.62
2016-11-15T10:22:02.745Z,3.68
2016-11-15T10:23:11.371Z,3.62
2016-11-15T10:24:20.037Z,3.66
2016-11-15T10:25:28.672Z,3.66
2016-11-15T10:26:37.309Z,3.62
2016-11-15T10:27:45.927Z,3.52
2016-11-15T10:28:54.558Z,3.43
2016-11-15T10:30:03.172Z,3.52
2016-11-15T10:31:11.797Z,3.5
2016-11-15T10:32:20.422Z,3.52
2016-11-15T10:33:29.015Z,3.52
2016-11-15T10:34:37.657Z,3.54
2016-11-15T10:35:46.308Z,3.47
2016-11-15T10:36:54.905Z,3.51
2016-11-15T10:38:03.520Z,3.51
2016-11-15T10:39:12.152Z,3.51
2016-11-15T10:40:20.796Z,3.4
2016-11-15T10:41:29.430Z,3.55
2016-11-15T10:42:38.075Z,3.5
2016-11-15T10:43:46.706Z,3.52
2016-11-15T10:44:55.325Z,3.54
2016-11-15T10:46:03.918Z,3.57
2016-11-15T10:47:12.522Z,3.52
2016-11-15T10:48:21.139Z,3.58
2016-11-15T10:49:29.740Z,3.43
2016-11-15T10:50:38.378Z,3.51
2016-11-15T10:51:46.994Z,3.47
2016-11-15T10:52:55.604Z,3.45
2016-11-15T10:54:04.237Z,3.4
2016-11-15T10:55:12.865Z,3.42
2016-11-15T10:56:21.479Z,3.42
2016-11-15T10:57:30.099Z,3.43
2016-11-15T10:58:38.746Z,3.36
2016-11-15T10:59:47.355Z,3.36
2016-11-15T11:00:55.993Z,3.36
2016-11-15T11:02:04.592Z,3.23
2016-11-15T11:03:13.518Z,3.36
2016-11-15T11:04:22.164Z,3.26
2016-11-15T11:05:30.785Z,3.17
2016-11-15T11:06:39.398Z,3.17
2016-11-15T11:07:48.027Z,3.26
2016-11-15T11:08:56.643Z,3.18
2016-11-15T11:10:05.245Z,3.14
2016-11-15T11:11:14.177Z,3.13
2016-11-15T11:12:22.799Z,3.08
2016-11-15T11:13:31.456Z,3.11
2016-11-15T11:14:40.096Z,3.06
2016-11-15T11:15:48.716Z,3.05
2016-11-15T11:16:57.317Z,3.11
2016-11-15T11:18:05.917Z,3.06
2016-11-15T11:19:14.525Z,3.21
2016-11-15T11:20:23.176Z,3.1
2016-11-15T11:21:31.809Z,3.17
2016-11-15T11:22:40.439Z,3.21
2016-11-15T11:23:49.065Z,3.17
2016-11-15T11:24:57.681Z,3.24
2016-11-15T11:26:06.338Z,3.31
2016-11-15T11:27:14.978Z,3.31
2016-11-15T11:28:23.569Z,3.33
2016-11-15T11:29:32.205Z,3.32
2016-11-15T11:30:40.828Z,3.29
2016-11-15T11:31:49.457Z,3.39
2016-11-15T11:32:58.087Z,3.35
2016-11-15T11:34:06.713Z,3.32
2016-11-15T11:35:15.322Z,3.39
2016-11-15T11:36:23.951Z,3.32
2016-11-15T11:37:32.543Z,3.32
2016-11-15T11:38:41.159Z,3.39
2016-11-15T11:39:49.784Z,3.28
2016-11-15T11:40:58.413Z,3.28
2016-11-15T11:42:07.030Z,3.4
2016-11-15T11:43:15.652Z,3.39
2016-11-15T11:44:24.277Z,3.31
2016-11-15T11:45:32.916Z,3.35
2016-11-15T11:46:41.537Z,3.33
2016-11-15T11:47:50.160Z,3.33
2016-11-15T11:48:58.754Z,3.31
2016-11-15T11:50:07.379Z,3.26
2016-11-15T11:51:15.996Z,3.23
2016-11-15T11:52:24.613Z,3.24
2016-11-15T11:53:33.234Z,3.18
2016-11-15T11:54:41.855Z,3.13
2016-11-15T11:55:50.488Z,3.05
2016-11-15T11:56:59.098Z,3.03
2016-11-15T11:58:07.707Z,3.11
2016-11-15T11:59:16.315Z,3.11
2016-11-15T12:00:24.965Z,3.11
2016-11-15T12:01:33.606Z,3.1
2016-11-15T12:02:42.232Z,3.11
2016-11-15T12:03:50.853Z,3.15
2016-11-15T12:04:59.470Z,3.21
2016-11-15T12:06:08.091Z,3.23
2016-11-15T12:07:16.702Z,3.08
2016-11-15T12:08:25.334Z,3.18
2016-11-15T12:09:33.939Z,3.17
2016-11-15T12:10:42.630Z,3.15
2016-11-15T12:11:51.252Z,3.2
2016-11-15T12:12:59.925Z,3.24
2016-11-15T12:14:08.551Z,3.15
2016-11-15T12:15:17.160Z,3.05
2016-11-15T12:16:25.782Z,3.15
2016-11-15T12:17:34.428Z,3.26
2016-11-15T12:18:43.074Z,3.14
2016-11-15T12:19:51.726Z,3.18
2016-11-15T12:21:00.374Z,3.18
2016-11-15T12:22:08.991Z,3.13
2016-11-15T12:23:17.639Z,3.28
2016-11-15T12:24:26.262Z,3.18
2016-11-15T12:25:34.859Z,3.23
2016-11-15T12:26:43.471Z,3.21
2016-11-15T12:27:52.094Z,3.17
2016-11-15T12:29:00.717Z,3.21
2016-11-15T12:30:09.339Z,3.29
2016-11-15T12:31:17.968Z,3.28
2016-11-15T12:32:26.613Z,3.23
2016-11-15T12:33:35.235Z,3.15
2016-11-15T12:34:43.854Z,3.18
2016-11-15T12:35:52.479Z,3.23
2016-11-15T12:37:01.095Z,3.2
2016-11-15T12:38:09.694Z,3.18
2016-11-15T12:39:18.317Z,3.14
2016-11-15T12:40:26.912Z,3.13
2016-11-15T12:41:35.545Z,3.2
2016-11-15T12:42:44.166Z,3.18
2016-11-15T12:43:52.776Z,3.15
2016-11-15T12:45:01.414Z,3.2
2016-11-15T12:46:10.013Z,3.24
2016-11-15T12:47:18.659Z,3.18
2016-11-15T12:48:27.273Z,3.18
2016-11-15T12:49:35.882Z,3.15
2016-11-15T12:50:44.514Z,3.1
2016-11-15T12:51:53.123Z,3.2
2016-11-15T12:53:01.741Z,3.18
2016-11-15T12:54:10.358Z,3.17
2016-11-15T12:55:18.978Z,3.18
2016-11-15T12:56:27.602Z,3.17
2016-11-15T12:57:36.226Z,3.24
2016-11-15T12:58:44.821Z,3.17
2016-11-15T12:59:53.438Z,3.24
2016-11-15T13:01:02.059Z,3.32
2016-11-15T13:02:10.663Z,3.4
2016-11-15T13:03:19.301Z,3.31
2016-11-15T13:04:27.905Z,3.35
2016-11-15T13:05:36.523Z,3.28
2016-11-15T13:06:45.150Z,3.36
2016-11-15T13:07:53.789Z,3.4
2016-11-15T13:09:02.382Z,3.32
2016-11-15T13:10:11.003Z,3.31
2016-11-15T13:11:19.645Z,3.35
2016-11-15T13:12:28.266Z,3.35
2016-11-15T13:13:36.874Z,3.31
2016-11-15T13:14:45.509Z,3.33
2016-11-15T13:15:54.167Z,3.36
2016-11-15T13:17:02.780Z,3.4
2016-11-15T13:18:11.405Z,3.32
2016-11-15T13:19:20.022Z,3.28
2016-11-15T13:20:28.643Z,3.35
2016-11-15T13:21:37.274Z,3.42
2016-11-15T13:22:45.890Z,3.36
2016-11-15T13:23:54.503Z,3.39
2016-11-15T13:25:03.111Z,3.47
2016-11-15T13:26:11.748Z,3.45
2016-11-15T13:27:20.669Z,3.43
2016-11-15T13:28:29.292Z,3.45
2016-11-15T13:29:37.912Z,3.47
2016-11-15T13:30:46.541Z,3.45
2016-11-15T13:31:55.176Z,3.52
2016-11-15T13:33:03.809Z,3.42
2016-11-15T13:34:12.454Z,3.43
2016-11-15T13:35:21.055Z,3.47
2016-11-15T13:36:29.974Z,3.5
2016-11-15T13:37:38.610Z,3.4
2016-11-15T13:38:47.264Z,3.4
2016-11-15T13:39:55.905Z,3.35
2016-11-15T13:41:04.502Z,3.33
2016-11-15T13:42:13.144Z,3.4
2016-11-15T13:43:21.769Z,3.4
2016-11-15T13:44:30.390Z,3.33
2016-11-15T13:45:39.016Z,3.39
2016-11-15T13:46:47.636Z,3.4
2016-11-15T13:47:56.275Z,3.4
2016-11-15T13:49:04.867Z,3.33
2016-11-15T13:50:13.498Z,3.36
2016-11-15T13:51:22.114Z,3.5
2016-11-15T13:52:30.737Z,3.43
2016-11-15T13:53:39.363Z,3.31
2016-11-15T13:54:47.956Z,3.39
2016-11-15T13:55:56.554Z,3.42
2016-11-15T13:57:05.178Z,3.35
2016-11-15T13:58:13.793Z,3.31
2016-11-15T13:59:22.412Z,3.33
2016-11-15T14:00:31.049Z,3.36
2016-11-15T14:01:39.732Z,3.4
2016-11-15T14:02:48.354Z,3.35
2016-11-15T14:03:56.971Z,3.29
2016-11-15T14:05:05.591Z,3.29
2016-11-15T14:06:14.218Z,3.29
2016-11-15T14:07:22.837Z,3.29
2016-11-15T14:08:31.434Z,3.28
2016-11-15T14:09:40.063Z,3.26
2016-11-15T14:10:48.718Z,3.24
2016-11-15T14:11:57.372Z,3.26
2016-11-15T14:13:05.998Z,3.28
2016-11-15T14:14:14.639Z,3.28
2016-11-15T14:15:23.239Z,3.28
2016-11-15T14:16:31.851Z,3.28
2016-11-15T14:17:40.470Z,3.36
2016-11-15T14:18:49.091Z,3.28
2016-11-15T14:19:57.714Z,3.32
2016-11-15T14:21:06.334Z,3.33
2016-11-15T14:22:14.942Z,3.32
2016-11-15T14:23:23.563Z,3.32
2016-11-15T14:24:32.205Z,3.4
2016-11-15T14:25:40.801Z,3.36
2016-11-15T14:26:49.419Z,3.4
2016-11-15T14:27:58.040Z,3.33
2016-11-15T14:29:06.664Z,3.39
2016-11-15T14:30:15.290Z,3.35
2016-11-15T14:31:23.913Z,3.4
2016-11-15T14:32:32.909Z,3.33
2016-11-15T14:33:41.523Z,3.32
2016-11-15T14:34:50.137Z,3.35
2016-11-15T14:35:58.741Z,3.29
2016-11-15T14:37:07.685Z,3.33
2016-11-15T14:38:16.308Z,3.28
2016-11-15T14:39:25.236Z,3.23
2016-11-15T14:40:33.922Z,3.28
2016-11-15T14:41:42.547Z,3.15
2016-11-15T14:42:51.164Z,3.21
2016-11-15T14:43:59.795Z,3.26
2016-11-15T14:45:08.404Z,3.18
2016-11-15T14:46:17.353Z,3.26
2016-11-15T14:47:26.006Z,3.32
2016-11-15T14:48:34.641Z,3.26
2016-11-15T14:49:43.262Z,3.32
2016-11-15T14:50:51.894Z,3.24
2016-11-15T14:52:00.530Z,3.21
2016-11-15T14:53:09.184Z,3.23
2016-11-15T14:54:17.801Z,3.13
2016-11-15T14:55:26.405Z,3.24
2016-11-15T14:56:35.047Z,3.23
2016-11-15T14:57:43.644Z,3.15
2016-11-15T14:58:52.256Z,3.24
2016-11-15T15:00:00.877Z,3.15
2016-11-15T15:01:09.498Z,3.15
2016-11-15T15:02:18.107Z,3.24
2016-11-15T15:03:26.724Z,3.21
2016-11-15T15:04:35.366Z,3.21
2016-11-15T15:05:44.010Z,3.24
2016-11-15T15:06:52.683Z,3.26
2016-11-15T15:08:01.325Z,3.24
2016-11-15T15:09:09.951Z,3.24
2016-11-15T15:10:18.597Z,3.18
2016-11-15T15:11:27.222Z,3.18
2016-11-15T15:12:35.835Z,3.24
2016-11-15T15:13:44.446Z,3.2
2016-11-15T15:14:53.066Z,3.26
2016-11-15T15:16:01.681Z,3.21
2016-11-15T15:17:10.298Z,3.21
2016-11-15T15:18:19.216Z,3.24
2016-11-15T15:19:27.811Z,3.17
2016-11-15T15:20:36.462Z,3.15
2016-11-15T15:21:45.078Z,3.18